2OI7 weather

Worthington Industries Heliport
Columbus, Ohio, United States

Public forecast

Using degrees Fahrenheit for public forecast. Weather courtesy of forecast.io.

Closest aviation weather report (METAR) to Worthington Industries Heliport

Closest report is The Ohio State University Airport - Don Scott Field, 4.6 nm (8.6 km) WSW. Retrieved 2020/06/04 04:53 UTC (18 minutes ago):

KOSU 040453Z AUTO 20006KT 10SM FEW090 BKN110 21/19 A2986 RMK AO2 RAB0358E21 SLP103 P0018 T02110189 403110211

Closest aviation forecast (TAF) to Worthington Industries Heliport

Closest forecast is John Glenn Columbus International Airport, 8.0 nm (14.8 km) SSE. Retrieved 2020-06-04 00:51 UTC (4 hours ago):

TAF KCMH 032348Z 0400/0424 31012KT P6SM SCT050 FM040300 24003KT P6SM VCSH OVC050 FM040800 34003KT P6SM -SHRA VCTS OVC035CB FM041300 28006KT P6SM SCT025 OVC035 FM041800 26007KT P6SM VCTS BKN035CB